Time;durP1;ratioP1;P1;durP2;ratioP2;P2;SDS_P1;SDS_P2;PMS_P1;PMS_P2;Temp;Humidity;BMP_temperature;BMP_pressure;BME280_temperature;BME280_humidity;BME280_pressure;Samples;Min_cycle;Max_cycle;Signal;HPM_P1;HPM_P2
2022/10/29 00:02:02;;;;;;;13.62;7.72;;;;;;;8.95;74.29;98005.50;1722344;83;27349;-77
2022/10/29 00:04:29;;;;;;;15.20;7.92;;;;;;;8.95;74.31;97994.73;1721973;83;25735;-73
2022/10/29 00:06:55;;;;;;;12.28;7.30;;;;;;;8.93;74.32;98003.54;1722336;83;25810;-74
2022/10/29 00:09:22;;;;;;;21.48;7.25;;;;;;;8.93;74.37;98007.58;1722185;83;26025;-76
2022/10/29 00:11:49;;;;;;;13.50;6.60;;;;;;;8.94;74.39;98008.38;1722306;83;25694;-73
2022/10/29 00:14:16;;;;;;;11.08;6.58;;;;;;;8.87;74.38;98011.00;1722200;83;28577;-72
2022/10/29 00:16:43;;;;;;;11.10;7.45;;;;;;;8.86;74.46;98011.18;1722030;83;25814;-74
2022/10/29 00:19:09;;;;;;;10.80;7.92;;;;;;;8.83;74.51;97997.57;1722065;83;25685;-73
2022/10/29 00:21:36;;;;;;;11.10;6.25;;;;;;;8.81;74.62;98003.68;1721885;83;26150;-73
2022/10/29 00:24:04;;;;;;;11.18;6.20;;;;;;;8.80;74.75;97997.13;1722277;83;25807;-73
2022/10/29 00:26:30;;;;;;;12.90;6.42;;;;;;;8.82;74.89;97991.86;1722258;83;28199;-76
2022/10/29 00:28:57;;;;;;;9.50;6.17;;;;;;;8.84;74.87;97996.55;1721821;83;25779;-72
2022/10/29 00:31:24;;;;;;;11.97;6.08;;;;;;;8.82;74.86;97993.72;1722179;83;25756;-75
2022/10/29 00:33:54;;;;;;;14.38;6.75;;;;;;;8.78;74.88;97989.23;1722438;83;26001;-73
2022/10/29 00:36:25;;;;;;;10.60;5.80;;;;;;;8.75;74.81;97982.88;1679800;84;25730;-73
2022/10/29 00:38:52;;;;;;;9.38;5.60;;;;;;;8.73;74.85;97979.52;1679692;84;28812;-73
2022/10/29 00:41:25;;;;;;;12.63;6.30;;;;;;;8.72;74.97;97977.84;1679678;85;25821;-75
2022/10/29 00:44:20;;;;;;;11.75;5.78;;;;;;;8.73;74.93;97983.56;1679676;85;25849;-75
2022/10/29 00:46:54;;;;;;;16.32;6.30;;;;;;;8.68;74.90;97985.99;1680014;84;25829;-76
2022/10/29 00:49:23;;;;;;;9.95;6.72;;;;;;;8.64;75.01;97983.34;1658614;86;25868;-73
2022/10/29 00:51:51;;;;;;;10.50;6.58;;;;;;;8.61;75.17;97979.66;1655241;86;27517;-76
2022/10/29 00:54:18;;;;;;;9.68;6.60;;;;;;;8.62;75.33;97975.95;1655163;85;26124;-73
2022/10/29 00:56:56;;;;;;;9.55;7.42;;;;;;;8.64;75.57;97971.23;1655195;85;25945;-73
2022/10/29 00:59:24;;;;;;;13.05;7.37;;;;;;;8.62;75.67;97974.61;1627033;86;26701;-73
2022/10/29 01:01:51;;;;;;;10.15;6.35;;;;;;;8.62;75.73;97972.75;1620521;87;25826;-74
2022/10/29 01:04:19;;;;;;;9.00;5.92;;;;;;;8.60;75.78;97968.56;1620457;88;27455;-75
2022/10/29 01:06:47;;;;;;;11.00;6.47;;;;;;;8.62;75.80;97965.19;1620374;88;25321;-73
2022/10/29 01:09:14;;;;;;;15.32;7.92;;;;;;;8.62;75.84;97977.30;1620445;87;25875;-74
2022/10/29 01:12:16;;;;;;;9.60;6.80;;;;;;;8.60;75.92;97972.09;1620464;87;26162;-76
2022/10/29 01:14:48;;;;;;;11.73;7.47;;;;;;;8.63;75.93;97971.73;1619823;87;25958;-76
2022/10/29 01:18:07;;;;;;;17.12;6.50;;;;;;;8.59;76.07;97959.66;1614832;88;27410;-73
2022/10/29 01:20:56;;;;;;;8.25;5.37;;;;;;;8.56;76.19;97956.53;1620241;87;25809;-73
2022/10/29 01:23:57;;;;;;;10.05;6.75;;;;;;;8.55;76.18;97959.72;1617447;87;25846;-75
2022/10/29 01:26:40;;;;;;;9.58;5.85;;;;;;;8.57;76.23;97954.16;1620417;87;26796;-75
2022/10/29 01:29:34;;;;;;;13.35;6.03;;;;;;;8.58;76.36;97947.73;1566814;91;25828;-73
2022/10/29 01:32:13;;;;;;;8.95;5.95;;;;;;;8.57;76.33;97943.40;1566904;91;27389;-74
2022/10/29 01:35:12;;;;;;;13.45;5.20;;;;;;;8.59;76.42;97945.37;1598882;88;25824;-73
2022/10/29 01:38:08;;;;;;;12.25;5.95;;;;;;;8.60;76.32;97949.22;1598327;89;25505;-74
2022/10/29 01:40:52;;;;;;;13.05;5.60;;;;;;;8.60;76.36;97944.34;1561676;91;26087;-74
2022/10/29 01:43:42;;;;;;;13.65;5.40;;;;;;;8.60;76.38;97952.42;1530453;93;25440;-73
2022/10/29 01:46:29;;;;;;;11.68;5.62;;;;;;;8.60;76.34;97947.04;1516148;93;27353;-74
2022/10/29 01:49:00;;;;;;;11.78;4.97;;;;;;;8.56;76.32;97947.11;1498503;95;25863;-75
2022/10/29 01:51:31;;;;;;;10.40;5.40;;;;;;;8.53;76.44;97946.13;1499007;95;25372;-73
2022/10/29 01:54:00;;;;;;;8.28;5.33;;;;;;;8.56;76.58;97943.07;1498797;95;26203;-73
2022/10/29 01:56:27;;;;;;;8.48;5.30;;;;;;;8.57;76.57;97947.44;1517664;93;25796;-73
2022/10/29 01:58:57;;;;;;;11.40;5.92;;;;;;;8.60;76.52;97941.66;1550119;92;27411;-73
2022/10/29 02:01:44;;;;;;;10.80;5.55;;;;;;;8.57;76.38;97943.40;1535072;93;25796;-74
2022/10/29 02:04:33;;;;;;;10.18;5.35;;;;;;;8.57;76.40;97943.40;1550004;92;26974;-75
2022/10/29 02:07:27;;;;;;;9.00;5.03;;;;;;;8.56;76.43;97945.77;1530825;93;26075;-73
2022/10/29 02:10:02;;;;;;;8.95;5.12;;;;;;;8.51;76.55;97946.81;1549992;92;25905;-72
2022/10/29 02:12:33;;;;;;;10.40;5.22;;;;;;;8.48;76.74;97943.14;1535587;93;28045;-75
2022/10/29 02:15:18;;;;;;;8.27;5.23;;;;;;;8.47;76.80;97938.78;1550122;91;25787;-73
2022/10/29 02:17:45;;;;;;;8.98;5.70;;;;;;;8.49;76.81;97924.12;1550103;91;25799;-75
2022/10/29 02:20:14;;;;;;;8.78;5.37;;;;;;;8.52;76.85;97924.27;1554934;90;25971;-73
2022/10/29 02:22:40;;;;;;;8.53;6.25;;;;;;;8.52;76.85;97919.73;1620877;88;25333;-75
2022/10/29 02:25:08;;;;;;;11.68;5.60;;;;;;;8.53;76.88;97918.70;1603653;89;27417;-74
2022/10/29 02:27:35;;;;;;;9.93;5.97;;;;;;;8.56;76.88;97913.47;1621839;88;25801;-74
2022/10/29 02:30:01;;;;;;;13.08;5.62;;;;;;;8.56;76.85;97916.16;1603650;89;25785;-73
2022/10/29 02:32:28;;;;;;;10.75;5.03;;;;;;;8.58;76.87;97921.66;1621854;88;26849;-73
2022/10/29 02:34:55;;;;;;;8.95;5.37;;;;;;;8.57;76.78;97915.14;1603624;89;25886;-73
2022/10/29 02:37:21;;;;;;;12.58;6.15;;;;;;;8.57;76.80;97916.48;1622130;88;27458;-75
2022/10/29 02:39:48;;;;;;;10.85;6.00;;;;;;;8.56;76.77;97918.86;1603567;89;25784;-74
2022/10/29 02:42:14;;;;;;;11.65;6.30;;;;;;;8.54;76.79;97918.20;1622086;88;25903;-71
2022/10/29 02:44:41;;;;;;;11.63;5.28;;;;;;;8.51;76.81;97915.88;1603634;89;26039;-73
2022/10/29 02:47:07;;;;;;;9.18;5.37;;;;;;;8.50;76.87;97911.51;1622086;88;25844;-74
2022/10/29 02:49:34;;;;;;;12.40;5.53;;;;;;;8.48;76.87;97918.42;1603591;89;26893;-73
2022/10/29 02:52:01;;;;;;;9.60;5.17;;;;;;;8.47;76.85;97911.36;1622052;88;25806;-76
2022/10/29 02:54:27;;;;;;;15.10;6.50;;;;;;;8.46;76.99;97911.55;1603687;89;25804;-76
2022/10/29 02:56:54;;;;;;;8.68;5.67;;;;;;;8.43;77.11;97911.44;1622171;88;26027;-76
2022/10/29 02:59:20;;;;;;;8.58;5.37;;;;;;;8.43;77.12;97909.25;1603571;89;25911;-73
2022/10/29 03:01:47;;;;;;;8.75;5.28;;;;;;;8.43;77.10;97906.56;1621990;88;26851;-73
2022/10/29 03:04:14;;;;;;;9.65;6.33;;;;;;;8.44;77.18;97904.20;1603694;89;25306;-73
2022/10/29 03:06:40;;;;;;;10.28;5.47;;;;;;;8.42;77.37;97906.23;1622188;88;25738;-73
2022/10/29 03:09:07;;;;;;;10.28;5.65;;;;;;;8.43;77.42;97901.18;1603690;89;25814;-74
2022/10/29 03:11:33;;;;;;;9.65;5.58;;;;;;;8.47;77.44;97909.19;1636530;86;25784;-72
2022/10/29 03:14:00;;;;;;;12.53;5.92;;;;;;;8.48;77.47;97906.31;1652770;86;28362;-76
2022/10/29 03:16:26;;;;;;;10.32;5.60;;;;;;;8.50;77.56;97900.23;1649891;86;25788;-73
2022/10/29 03:18:53;;;;;;;9.85;4.97;;;;;;;8.54;77.69;97900.20;1650133;86;25783;-73
2022/10/29 03:21:19;;;;;;;11.45;5.15;;;;;;;8.57;77.72;97902.49;1647599;86;25992;-73
2022/10/29 03:23:46;;;;;;;13.85;5.10;;;;;;;8.63;77.76;97900.92;1661529;86;25577;-72
2022/10/29 03:26:13;;;;;;;22.02;17.25;;;;;;;8.68;77.75;97899.03;1661858;86;28239;-73
2022/10/29 03:28:40;;;;;;;19.67;17.05;;;;;;;8.68;77.68;97898.52;1661764;86;25942;-76
2022/10/29 03:31:06;;;;;;;16.05;9.63;;;;;;;8.70;77.69;97896.96;1661795;86;25668;-73
2022/10/29 03:33:33;;;;;;;9.18;6.42;;;;;;;8.70;77.76;97885.69;1661830;86;25970;-73
2022/10/29 03:36:02;;;;;;;8.45;5.03;;;;;;;8.71;77.71;97887.87;1632649;86;25711;-74
2022/10/29 03:38:29;;;;;;;9.25;4.90;;;;;;;8.72;77.76;97886.34;1661737;86;26488;-73
2022/10/29 03:40:56;;;;;;;12.15;4.70;;;;;;;8.75;77.70;97881.09;1661696;86;25829;-71
2022/10/29 03:43:23;;;;;;;9.90;4.78;;;;;;;8.78;77.73;97878.88;1661855;86;25709;-73
2022/10/29 03:45:53;;;;;;;10.55;4.87;;;;;;;8.82;77.73;97884.69;1661802;86;26151;-73
2022/10/29 03:48:20;;;;;;;12.30;5.35;;;;;;;8.86;77.71;97882.80;1632839;87;26020;-73
2022/10/29 03:51:04;;;;;;;11.15;5.40;;;;;;;8.85;77.65;97877.08;1625949;86;27631;-72
2022/10/29 03:53:33;;;;;;;12.05;5.65;;;;;;;8.87;77.65;97879.59;1637883;86;25715;-73
2022/10/29 03:55:59;;;;;;;10.30;5.78;;;;;;;8.86;77.62;97878.75;1632875;87;25828;-74
2022/10/29 03:58:26;;;;;;;12.03;8.20;;;;;;;8.87;77.57;97877.73;1625868;87;26485;-73
2022/10/29 04:01:05;;;;;;;9.18;6.85;;;;;;;8.84;77.52;97875.41;1630354;87;25747;-74
2022/10/29 04:03:34;;;;;;;10.90;5.62;;;;;;;8.81;77.49;97873.13;1625981;87;28060;-74
2022/10/29 04:06:10;;;;;;;9.63;5.12;;;;;;;8.82;77.59;97874.77;1637934;85;25795;-73
2022/10/29 04:08:37;;;;;;;9.35;4.87;;;;;;;8.84;77.57;97875.92;1630936;87;25892;-73
2022/10/29 04:11:05;;;;;;;7.62;4.97;;;;;;;8.83;77.58;97873.73;1625859;88;25984;-75
2022/10/29 04:13:31;;;;;;;8.48;4.35;;;;;;;8.81;77.54;97873.63;1637770;87;25387;-73
2022/10/29 04:15:58;;;;;;;9.98;5.30;;;;;;;8.80;77.56;97875.48;1632796;87;28297;-72
2022/10/29 04:18:25;;;;;;;8.85;5.40;;;;;;;8.79;77.59;97873.81;1625494;88;25555;-75
2022/10/29 04:20:52;;;;;;;10.95;5.17;;;;;;;8.82;77.65;97877.96;1637809;85;26863;-73
2022/10/29 04:23:19;;;;;;;8.83;4.40;;;;;;;8.79;77.62;97876.51;1630053;87;25999;-73
2022/10/29 04:25:57;;;;;;;7.20;4.35;;;;;;;8.79;77.57;97875.67;1630162;88;25865;-75
2022/10/29 04:28:25;;;;;;;8.20;4.17;;;;;;;8.76;77.63;97880.91;1580055;90;28546;-73
2022/10/29 04:30:52;;;;;;;11.20;4.45;;;;;;;8.78;77.79;97869.45;1579801;90;25946;-73
2022/10/29 04:33:19;;;;;;;8.93;4.50;;;;;;;8.78;77.84;97865.41;1580129;90;25850;-72
2022/10/29 04:35:53;;;;;;;8.83;5.03;;;;;;;8.81;77.85;97867.73;1579597;90;26054;-74
2022/10/29 04:38:21;;;;;;;9.95;4.80;;;;;;;8.83;77.90;97867.52;1579726;90;25766;-73
2022/10/29 04:40:48;;;;;;;6.22;4.45;;;;;;;8.87;77.91;97861.58;1579696;90;27476;-72
2022/10/29 04:43:14;;;;;;;8.43;4.28;;;;;;;8.90;77.93;97865.25;1579960;90;25878;-74
2022/10/29 04:45:41;;;;;;;7.90;4.42;;;;;;;8.91;77.96;97858.84;1580780;90;25791;-73
2022/10/29 04:48:08;;;;;;;11.43;4.20;;;;;;;8.92;77.95;97868.59;1536790;93;26100;-74
2022/10/29 04:50:37;;;;;;;6.92;4.87;;;;;;;8.97;78.00;97866.14;1536929;93;26013;-73
2022/10/29 04:53:06;;;;;;;9.43;4.62;;;;;;;9.00;78.03;97867.63;1536884;93;27413;-73
2022/10/29 04:55:36;;;;;;;10.53;4.67;;;;;;;9.03;78.01;97868.61;1536480;93;25899;-74
2022/10/29 04:58:08;;;;;;;10.78;4.78;;;;;;;9.07;78.12;97869.88;1536785;93;25350;-75
2022/10/29 05:00:35;;;;;;;9.35;5.33;;;;;;;9.10;78.09;97876.73;1536548;93;26143;-73
2022/10/29 05:03:03;;;;;;;10.90;5.33;;;;;;;9.12;78.11;97880.92;1536650;93;25736;-74
2022/10/29 05:05:29;;;;;;;12.23;5.37;;;;;;;9.13;78.13;97872.33;1536731;93;27356;-73
2022/10/29 05:08:01;;;;;;;10.03;4.70;;;;;;;9.16;78.10;97877.34;1536649;93;25792;-73
2022/10/29 05:10:31;;;;;;;8.10;4.60;;;;;;;9.20;78.10;97886.69;1536951;93;25901;-73
2022/10/29 05:13:09;;;;;;;10.65;4.87;;;;;;;9.22;78.07;97877.91;1536726;93;25950;-73
2022/10/29 05:15:36;;;;;;;10.85;4.72;;;;;;;9.24;77.99;97865.92;1478346;97;25724;-73
2022/10/29 05:18:05;;;;;;;7.08;4.00;;;;;;;9.28;77.95;97871.77;1470253;97;46586;-74
2022/10/29 05:20:32;;;;;;;9.70;4.08;;;;;;;9.32;77.98;97867.13;1504688;95;25876;-73
2022/10/29 05:23:02;;;;;;;12.37;5.42;;;;;;;9.37;78.04;97863.88;1509911;93;25822;-74
2022/10/29 05:25:31;;;;;;;15.60;7.33;;;;;;;9.44;77.95;97863.92;1555042;90;26032;-74
2022/10/29 05:28:04;;;;;;;11.45;6.42;;;;;;;9.47;77.97;97864.38;1554984;92;25373;-73
2022/10/29 05:30:32;;;;;;;11.95;5.40;;;;;;;9.53;78.02;97866.31;1514715;93;27428;-74
2022/10/29 05:32:59;;;;;;;12.95;5.62;;;;;;;9.62;77.98;97875.09;1516966;94;25849;-73
2022/10/29 05:35:26;;;;;;;10.32;6.00;;;;;;;9.72;77.97;97864.81;1502620;94;25404;-75
2022/10/29 05:37:54;;;;;;;14.78;5.75;;;;;;;9.80;77.83;97864.66;1502541;94;26239;-73
2022/10/29 05:40:22;;;;;;;9.85;4.50;;;;;;;9.89;77.79;97873.46;1502533;94;25908;-74
2022/10/29 05:42:49;;;;;;;7.92;4.85;;;;;;;9.93;77.49;97872.02;1502581;94;27630;-74
2022/10/29 05:45:16;;;;;;;10.75;4.58;;;;;;;9.97;77.31;97871.95;1502646;94;25546;-73
2022/10/29 05:47:43;;;;;;;11.18;5.22;;;;;;;9.99;77.21;97872.59;1502707;94;25952;-73
2022/10/29 05:50:11;;;;;;;8.70;4.72;;;;;;;10.00;77.05;97869.70;1502618;94;26169;-73
2022/10/29 05:52:39;;;;;;;13.85;5.10;;;;;;;10.03;76.98;97873.85;1502583;94;25888;-73
2022/10/29 05:55:07;;;;;;;10.50;4.78;;;;;;;10.06;76.92;97878.34;1502687;94;27628;-74
2022/10/29 05:57:34;;;;;;;8.78;5.33;;;;;;;10.08;76.89;97870.06;1502593;94;25798;-73
2022/10/29 06:00:01;;;;;;;6.42;4.20;;;;;;;10.11;76.86;97880.47;1502439;94;25950;-74
2022/10/29 06:02:28;;;;;;;9.75;4.75;;;;;;;10.14;76.81;97877.38;1502421;94;26057;-74
2022/10/29 06:04:54;;;;;;;11.75;4.62;;;;;;;10.16;76.77;97879.86;1502687;94;25941;-76
2022/10/29 06:07:21;;;;;;;8.28;4.67;;;;;;;10.17;76.78;97879.66;1512641;93;26878;-74
2022/10/29 06:09:48;;;;;;;7.37;4.22;;;;;;;10.18;76.84;97875.97;1555014;90;25944;-74
2022/10/29 06:12:14;;;;;;;9.33;4.83;;;;;;;10.21;76.80;97885.02;1612668;85;25686;-75
2022/10/29 06:14:41;;;;;;;11.83;4.97;;;;;;;10.28;76.90;97881.01;1672020;85;26053;-74
2022/10/29 06:17:07;;;;;;;12.65;5.50;;;;;;;10.33;76.75;97875.86;1672126;85;25763;-73
2022/10/29 06:19:34;;;;;;;12.85;4.55;;;;;;;10.38;76.66;97864.80;1672047;85;28149;-75
2022/10/29 06:22:00;;;;;;;14.87;4.95;;;;;;;10.42;76.62;97852.56;1669665;84;26030;-74
2022/10/29 06:24:27;;;;;;;14.80;5.55;;;;;;;10.48;76.70;97848.77;1652533;86;25718;-75
2022/10/29 06:26:54;;;;;;;11.73;5.05;;;;;;;10.57;76.61;97840.80;1649868;86;26830;-73
2022/10/29 06:29:21;;;;;;;13.22;5.37;;;;;;;10.61;76.44;97831.28;1649834;86;25912;-73
2022/10/29 06:31:48;;;;;;;13.90;5.85;;;;;;;10.65;76.34;97821.72;1650121;86;27316;-75
2022/10/29 06:34:15;;;;;;;11.55;5.17;;;;;;;10.68;76.27;97812.71;1650116;86;25762;-73
2022/10/29 06:36:43;;;;;;;14.30;5.47;;;;;;;10.72;76.15;97823.44;1649845;86;25803;-75
2022/10/29 06:39:10;;;;;;;12.63;5.92;;;;;;;10.77;76.12;97822.81;1650135;86;26162;-72
2022/10/29 06:41:37;;;;;;;10.40;5.80;;;;;;;10.82;75.96;97828.45;1650095;86;25870;-73
2022/10/29 06:44:04;;;;;;;13.22;5.35;;;;;;;10.87;75.97;97822.45;1649829;86;27455;-73
2022/10/29 06:46:32;;;;;;;16.25;6.05;;;;;;;10.93;76.00;97826.50;1649913;86;25714;-73
2022/10/29 06:48:59;;;;;;;10.13;5.55;;;;;;;11.00;75.95;97831.91;1650076;86;25789;-76
2022/10/29 06:51:26;;;;;;;16.15;7.30;;;;;;;11.05;75.96;97832.15;1650183;86;26077;-71
2022/10/29 06:53:53;;;;;;;12.10;5.70;;;;;;;11.09;75.90;97838.81;1650300;86;25743;-73
2022/10/29 06:56:21;;;;;;;15.20;5.72;;;;;;;11.12;75.83;97844.63;1650081;86;27535;-74
2022/10/29 06:58:47;;;;;;;10.93;6.80;;;;;;;11.18;75.79;97855.15;1649815;86;26457;-73
2022/10/29 07:01:14;;;;;;;13.48;6.53;;;;;;;11.24;75.76;97841.32;1650075;86;25697;-74
2022/10/29 07:03:40;;;;;;;13.75;5.50;;;;;;;11.28;75.76;97846.64;1650054;86;26191;-74
2022/10/29 07:06:07;;;;;;;11.95;5.90;;;;;;;11.32;75.70;97843.86;1650172;86;25763;-74
2022/10/29 07:08:34;;;;;;;11.57;5.40;;;;;;;11.38;75.65;97847.91;1650207;86;27384;-74
2022/10/29 07:11:01;;;;;;;13.13;5.42;;;;;;;11.44;75.59;97847.61;1649759;86;25744;-76
2022/10/29 07:13:28;;;;;;;14.70;6.53;;;;;;;11.48;75.62;97854.25;1650110;86;25301;-74
2022/10/29 07:15:55;;;;;;;12.43;6.45;;;;;;;11.54;75.71;97845.33;1650086;86;26873;-74
2022/10/29 07:18:21;;;;;;;16.17;7.30;;;;;;;11.61;75.58;97846.16;1650223;86;25933;-75
2022/10/29 07:20:48;;;;;;;11.90;6.17;;;;;;;11.69;75.51;97842.44;1650173;86;27383;-75
2022/10/29 07:23:14;;;;;;;18.35;6.08;;;;;;;11.76;75.50;97853.59;1644916;85;25787;-74
2022/10/29 07:25:41;;;;;;;15.38;6.50;;;;;;;11.84;75.41;97861.48;1661816;86;25817;-73
2022/10/29 07:28:19;;;;;;;14.75;6.60;;;;;;;11.93;75.49;97855.36;1661610;86;26104;-75
2022/10/29 07:30:49;;;;;;;15.95;6.80;;;;;;;11.99;75.49;97859.92;1661722;86;25744;-74
2022/10/29 07:33:17;;;;;;;18.70;6.30;;;;;;;12.07;75.37;97867.84;1661813;86;28244;-75
2022/10/29 07:35:45;;;;;;;14.95;6.00;;;;;;;12.15;75.31;97866.78;1661607;86;25716;-74
2022/10/29 07:38:12;;;;;;;15.00;6.53;;;;;;;12.24;75.36;97857.40;1661790;86;25793;-73
2022/10/29 07:40:48;;;;;;;16.23;6.33;;;;;;;12.37;75.18;97861.44;1661497;86;26850;-73
2022/10/29 07:43:16;;;;;;;14.20;5.83;;;;;;;12.51;75.04;97867.14;1661850;86;25827;-74
2022/10/29 07:45:50;;;;;;;15.98;6.28;;;;;;;12.69;74.97;97865.09;1661781;86;27453;-73
2022/10/29 07:48:19;;;;;;;11.00;5.72;;;;;;;12.93;74.99;97860.83;1661665;86;25791;-73
2022/10/29 07:50:46;;;;;;;14.80;5.05;;;;;;;13.22;74.79;97852.70;1661828;86;25715;-76
2022/10/29 07:53:13;;;;;;;14.03;4.62;;;;;;;13.54;74.32;97857.08;1661757;86;25994;-73
2022/10/29 07:55:40;;;;;;;11.08;4.47;;;;;;;13.87;73.42;97862.27;1661761;86;25659;-76
2022/10/29 07:58:11;;;;;;;9.25;3.70;;;;;;;14.13;72.62;97860.39;1661506;86;27468;-73
2022/10/29 08:00:40;;;;;;;10.72;3.75;;;;;;;14.47;72.04;97871.27;1661613;86;25517;-74
2022/10/29 08:03:08;;;;;;;12.15;4.25;;;;;;;14.81;71.20;97869.83;1661906;86;25771;-73
2022/10/29 08:05:35;;;;;;;10.95;4.17;;;;;;;15.17;70.71;97863.00;1661772;86;26094;-74
2022/10/29 08:08:02;;;;;;;7.35;3.27;;;;;;;15.53;70.01;97858.53;1661772;86;25668;-73
2022/10/29 08:10:30;;;;;;;11.55;3.90;;;;;;;15.87;69.45;97860.53;1661705;86;27406;-74
2022/10/29 08:13:00;;;;;;;11.28;4.10;;;;;;;16.11;68.55;97855.42;1661518;86;25747;-74
2022/10/29 08:15:31;;;;;;;15.43;4.75;;;;;;;16.34;68.07;97857.84;1661761;86;25297;-74
2022/10/29 08:17:57;;;;;;;10.55;4.03;;;;;;;16.55;67.02;97857.23;1661778;86;26067;-74
2022/10/29 08:20:27;;;;;;;13.93;4.47;;;;;;;16.76;67.20;97852.59;1661607;86;26653;-74
2022/10/29 08:22:54;;;;;;;8.85;3.95;;;;;;;16.96;66.62;97854.91;1659527;86;27464;-76
2022/10/29 08:25:21;;;;;;;13.40;4.33;;;;;;;17.14;66.28;97856.64;1661376;86;25868;-74
2022/10/29 08:28:01;;;;;;;10.88;3.90;;;;;;;17.34;65.67;97860.30;1661758;86;25739;-74
2022/10/29 08:30:29;;;;;;;9.08;4.75;;;;;;;17.52;65.70;97860.91;1615692;87;26000;-74
2022/10/29 08:32:56;;;;;;;12.15;4.30;;;;;;;17.75;65.29;97862.72;1606471;87;25801;-73
2022/10/29 08:35:23;;;;;;;12.63;4.85;;;;;;;17.93;64.49;97863.88;1615669;87;27400;-73
2022/10/29 08:37:50;;;;;;;11.20;5.05;;;;;;;18.06;64.54;97869.55;1606633;88;26008;-73
2022/10/29 08:40:37;;;;;;;13.22;5.00;;;;;;;18.12;64.32;97868.55;1615838;87;25409;-73
2022/10/29 08:43:56;;;;;;;11.35;5.05;;;;;;;18.17;63.60;97870.55;1553237;91;26819;-75
2022/10/29 08:47:06;;;;;;;12.40;6.12;;;;;;;18.14;63.35;97869.67;1561730;91;25857;-72
2022/10/29 08:50:02;;;;;;;16.70;6.47;;;;;;;18.18;63.44;97866.20;1554312;92;27450;-73
2022/10/29 08:52:33;;;;;;;11.65;5.78;;;;;;;18.31;63.49;97874.06;1553178;91;25755;-73
2022/10/29 08:55:21;;;;;;;14.15;5.80;;;;;;;18.47;63.10;97867.48;1551941;92;25792;-74
2022/10/29 08:57:58;;;;;;;11.85;5.40;;;;;;;18.61;62.97;97871.52;1506901;94;26059;-73
2022/10/29 09:00:30;;;;;;;13.25;5.70;;;;;;;18.80;62.73;97866.06;1537959;92;25784;-75
2022/10/29 09:02:59;;;;;;;15.00;6.25;;;;;;;19.04;62.34;97865.28;1487131;96;33963;-73
2022/10/29 09:05:30;;;;;;;10.32;5.25;;;;;;;19.19;61.98;97859.19;1506011;95;25835;-73
2022/10/29 09:08:17;;;;;;;10.38;5.55;;;;;;;19.26;61.54;97863.91;1484460;96;26023;-73
2022/10/29 09:10:53;;;;;;;11.60;5.42;;;;;;;19.35;61.37;97852.78;1471648;96;26095;-75
2022/10/29 09:13:48;;;;;;;10.15;5.30;;;;;;;19.46;61.11;97862.76;1451342;97;25924;-74
2022/10/29 09:16:43;;;;;;;13.28;5.50;;;;;;;19.58;60.81;97859.36;1450340;97;27500;-73
2022/10/29 09:19:33;;;;;;;18.35;5.25;;;;;;;19.75;60.58;97864.75;1450451;97;25941;-74
2022/10/29 09:22:11;;;;;;;8.45;3.85;;;;;;;19.94;59.97;97861.91;1473631;95;25886;-75
2022/10/29 09:25:04;;;;;;;17.60;6.85;;;;;;;20.18;59.58;97862.38;1486690;95;25991;-75
2022/10/29 09:27:48;;;;;;;9.53;4.80;;;;;;;20.31;58.92;97865.23;1493721;95;25855;-75
2022/10/29 09:30:18;;;;;;;13.05;4.85;;;;;;;20.41;58.48;97870.27;1479056;96;27635;-75
2022/10/29 09:33:11;;;;;;;11.53;4.20;;;;;;;20.51;58.02;97868.71;1488626;96;25866;-74
2022/10/29 09:35:43;;;;;;;10.28;4.42;;;;;;;20.60;57.51;97858.89;1443412;99;25893;-73
2022/10/29 09:38:17;;;;;;;13.88;3.47;;;;;;;20.65;56.92;97867.16;1453724;98;26786;-75
2022/10/29 09:40:45;;;;;;;13.10;3.70;;;;;;;20.69;56.95;97860.03;1453746;97;26201;-73
2022/10/29 09:43:32;;;;;;;9.65;4.28;;;;;;;20.68;56.05;97852.90;1453981;98;27405;-74
2022/10/29 09:46:38;;;;;;;6.70;3.80;;;;;;;20.68;56.08;97850.16;1432975;98;25378;-73
2022/10/29 09:49:45;;;;;;;5.97;4.03;;;;;;;20.71;55.87;97850.45;1432927;98;25875;-76
2022/10/29 09:52:18;;;;;;;7.67;3.85;;;;;;;20.77;55.43;97856.81;1432847;100;26109;-73
2022/10/29 09:54:47;;;;;;;16.87;5.92;;;;;;;20.87;55.41;97848.64;1406473;100;25895;-72
2022/10/29 09:57:21;;;;;;;11.20;4.70;;;;;;;21.00;55.23;97846.78;1403589;101;28292;-75
2022/10/29 10:00:01;;;;;;;13.85;6.17;;;;;;;21.13;54.90;97836.66;1383089;101;25911;-73
2022/10/29 10:02:43;;;;;;;14.47;5.42;;;;;;;21.18;54.59;97833.11;1384134;102;25912;-75
2022/10/29 10:05:15;;;;;;;;;;;;;;;21.22;54.31;97826.58;1384549;102;26076;-74
2022/10/29 10:07:42;;;;;;;14.23;5.00;;;;;;;21.30;53.09;97821.92;1386320;102;25971;-75
2022/10/29 10:10:22;;;;;;;9.38;4.78;;;;;;;21.37;53.72;97819.77;1404371;100;28205;-73
2022/10/29 10:12:50;;;;;;;13.93;4.95;;;;;;;21.43;53.62;97815.38;1430195;100;25929;-74
2022/10/29 10:15:28;;;;;;;10.78;4.65;;;;;;;21.50;53.33;97809.06;1430076;100;25904;-73
2022/10/29 10:18:20;;;;;;;13.62;5.17;;;;;;;21.56;53.24;97808.54;1430173;100;26050;-75
2022/10/29 10:21:12;;;;;;;8.95;4.30;;;;;;;21.67;53.05;97800.59;1430374;100;25993;-73
2022/10/29 10:23:43;;;;;;;15.50;6.00;;;;;;;21.84;52.54;97807.21;1390866;101;27526;-74
2022/10/29 10:26:32;;;;;;;19.10;8.43;;;;;;;21.98;52.33;97803.37;1405758;102;25952;-74
2022/10/29 10:29:20;;;;;;;12.05;4.70;;;;;;;22.14;52.13;97796.78;1411105;100;25825;-73
2022/10/29 10:31:57;;;;;;;9.63;4.67;;;;;;;22.31;52.12;97797.32;1421717;100;26025;-74
2022/10/29 10:34:28;;;;;;;8.30;4.00;;;;;;;22.53;51.91;97789.57;1421785;99;25920;-75
2022/10/29 10:37:12;;;;;;;7.30;3.80;;;;;;;22.76;51.81;97785.95;1424083;99;27790;-74
2022/10/29 10:39:47;;;;;;;9.63;4.20;;;;;;;22.96;51.26;97788.63;1440501;99;25878;-75
2022/10/29 10:42:19;;;;;;;11.53;4.12;;;;;;;23.13;51.11;97791.03;1440807;99;25791;-73
2022/10/29 10:45:21;;;;;;;12.90;4.62;;;;;;;23.22;50.54;97791.53;1440937;99;26082;-74
2022/10/29 10:47:52;;;;;;;9.75;4.40;;;;;;;23.31;50.59;97789.00;1438538;99;25795;-73
2022/10/29 10:50:32;;;;;;;12.07;5.45;;;;;;;23.34;50.15;97777.42;1440937;99;27471;-76
2022/10/29 10:53:19;;;;;;;9.15;3.70;;;;;;;23.38;50.05;97773.55;1454788;98;25832;-76
2022/10/29 10:55:51;;;;;;;10.38;4.10;;;;;;;23.43;50.18;97772.12;1392026;103;25519;-73
2022/10/29 10:58:30;;;;;;;14.20;5.42;;;;;;;23.51;50.02;97768.82;1412215;99;26029;-74
2022/10/29 11:01:13;;;;;;;13.65;5.17;;;;;;;23.58;49.80;97769.31;1501542;91;25841;-76
2022/10/29 11:04:03;;;;;;;14.70;4.78;;;;;;;23.69;49.59;97768.95;1533394;92;27454;-73
2022/10/29 11:06:39;;;;;;;8.90;4.30;;;;;;;23.82;48.66;97770.23;1488646;96;25808;-76
2022/10/29 11:09:36;;;;;;;13.08;4.72;;;;;;;23.83;48.16;97769.13;1489641;96;25899;-73
2022/10/29 11:12:08;;;;;;;14.28;4.53;;;;;;;23.91;48.38;97758.84;1466502;97;26037;-74
2022/10/29 11:14:52;;;;;;;10.05;4.40;;;;;;;24.12;48.70;97762.82;1468354;97;25959;-74
2022/10/29 11:17:42;;;;;;;11.95;4.30;;;;;;;24.23;48.29;97756.12;1445783;99;27470;-74
2022/10/29 11:20:20;;;;;;;9.25;3.72;;;;;;;24.23;48.02;97750.61;1445884;99;25855;-77
2022/10/29 11:23:22;;;;;;;13.60;4.10;;;;;;;24.32;47.67;97751.06;1425855;100;25809;-74
2022/10/29 11:25:54;;;;;;;9.10;3.77;;;;;;;24.39;47.39;97740.48;1407271;101;26127;-76
2022/10/29 11:28:45;;;;;;;9.70;3.65;;;;;;;24.61;46.70;97735.86;1428519;100;25949;-76
2022/10/29 11:31:42;;;;;;;11.53;3.85;;;;;;;24.81;46.78;97733.95;1428386;100;27539;-74
2022/10/29 11:34:25;;;;;;;11.63;3.20;;;;;;;24.89;46.09;97729.14;1430473;100;25702;-74
2022/10/29 11:37:03;;;;;;;7.60;3.52;;;;;;;24.93;45.82;97731.63;1446406;99;25917;-76
2022/10/29 11:39:47;;;;;;;10.50;3.52;;;;;;;25.02;45.50;97733.98;1446339;99;26009;-75
2022/10/29 11:42:14;;;;;;;7.33;3.50;;;;;;;25.00;45.28;97732.89;1445351;99;25940;-73
2022/10/29 11:44:40;;;;;;;13.13;4.20;;;;;;;25.12;45.50;97733.84;1484346;94;27408;-74
2022/10/29 11:47:17;;;;;;;10.48;3.50;;;;;;;25.23;45.14;97728.46;1488781;96;25893;-74
2022/10/29 11:50:27;;;;;;;7.28;3.65;;;;;;;25.30;44.85;97728.89;1486802;96;26343;-74
2022/10/29 11:53:25;;;;;;;8.60;3.90;;;;;;;25.22;45.05;97727.38;1493484;93;26010;-75
2022/10/29 11:56:29;;;;;;;8.65;3.70;;;;;;;25.13;44.96;97721.67;1499731;94;25887;-76
2022/10/29 11:59:27;;;;;;;12.82;4.03;;;;;;;25.23;45.04;97719.34;1499873;94;27405;-73
2022/10/29 12:02:17;;;;;;;12.07;4.85;;;;;;;25.26;44.30;97720.94;1474490;95;25366;-74